Time;durP1;ratioP1;P1;durP2;ratioP2;P2;SDS_P1;SDS_P2;PMS_P1;PMS_P2;Temp;Humidity;BMP_temperature;BMP_pressure;BME280_temperature;BME280_humidity;BME280_pressure;Samples;Min_cycle;Max_cycle;Signal;HPM_P1;HPM_P2
2022/05/10 00:01:27;;;;;;;9.00;4.80;;;13.70;1.00;;;;;;5028739;28;20478;-82
2022/05/10 00:04:01;;;;;;;7.57;4.73;;;13.60;1.00;;;;;;5030052;28;20420;-83
2022/05/10 00:06:45;;;;;;;8.73;4.77;;;13.60;1.00;;;;;;5034354;28;20457;-82
2022/05/10 00:09:16;;;;;;;8.40;4.97;;;13.60;1.00;;;;;;5035508;28;20421;-80
2022/05/10 00:11:46;;;;;;;11.23;5.03;;;13.50;1.00;;;;;;5040658;28;20435;-81
2022/05/10 00:14:16;;;;;;;7.07;5.00;;;13.40;1.00;;;;;;5027688;28;20462;-82
2022/05/10 00:16:54;;;;;;;8.37;5.37;;;13.40;1.00;;;;;;5034082;28;20435;-82
2022/05/10 00:19:30;;;;;;;8.80;6.50;;;13.40;1.00;;;;;;5034252;28;20528;-80
2022/05/10 00:21:57;;;;;;;8.37;4.90;;;13.30;1.00;;;;;;5035380;28;20525;-87
2022/05/10 00:24:25;;;;;;;7.17;5.07;;;13.30;1.00;;;;;;5033817;28;20431;-82
2022/05/10 00:26:55;;;;;;;10.37;5.30;;;13.30;1.00;;;;;;5039499;28;20435;-81
2022/05/10 00:29:25;;;;;;;7.23;5.03;;;13.20;1.00;;;;;;5030365;28;20411;-82
2022/05/10 00:31:57;;;;;;;10.13;5.13;;;13.20;1.00;;;;;;5031273;28;20447;-80
2022/05/10 00:34:34;;;;;;;8.20;5.10;;;13.20;1.00;;;;;;5035408;28;20428;-85
2022/05/10 00:37:06;;;;;;;7.10;5.33;;;13.10;1.00;;;;;;5038611;28;20426;-85
2022/05/10 00:39:35;;;;;;;9.50;5.13;;;13.00;1.00;;;;;;5031011;28;20420;-82
2022/05/10 00:42:17;;;;;;;8.50;5.37;;;13.00;1.00;;;;;;5039877;28;20467;-88
2022/05/10 00:44:55;;;;;;;8.90;5.37;;;13.00;1.00;;;;;;5037396;28;20478;-82
2022/05/10 00:47:38;;;;;;;8.00;5.53;;;12.90;1.00;;;;;;5033648;28;20425;-82
2022/05/10 00:50:15;;;;;;;7.10;4.87;;;12.80;1.00;;;;;;5032803;28;20466;-82
2022/05/10 00:52:55;;;;;;;8.33;5.40;;;12.80;1.00;;;;;;5031469;28;20430;-82
2022/05/10 00:55:43;;;;;;;9.80;5.40;;;12.70;1.00;;;;;;5036808;28;20497;-82
2022/05/10 00:58:27;;;;;;;8.57;5.23;;;12.60;1.00;;;;;;5034535;28;20634;-83
2022/05/10 01:00:56;;;;;;;9.33;5.37;;;12.60;1.00;;;;;;5029583;28;20430;-82
2022/05/10 01:03:36;;;;;;;10.50;5.83;;;12.60;1.00;;;;;;5035048;28;20669;-82
2022/05/10 01:06:15;;;;;;;6.63;5.00;;;12.50;1.00;;;;;;5032919;28;20419;-83
2022/05/10 01:08:57;;;;;;;9.43;5.20;;;12.60;1.00;;;;;;5029266;28;20453;-82
2022/05/10 01:11:44;;;;;;;8.73;5.40;;;12.50;1.00;;;;;;5034068;28;20426;-82
2022/05/10 01:14:25;;;;;;;9.20;5.20;;;12.50;1.00;;;;;;5029808;28;20431;-79
2022/05/10 01:16:56;;;;;;;11.77;5.47;;;12.60;1.00;;;;;;5034104;28;20482;-80
2022/05/10 01:19:36;;;;;;;7.50;4.53;;;12.60;1.00;;;;;;5033459;28;20477;-80
2022/05/10 01:22:18;;;;;;;7.60;5.40;;;12.50;1.00;;;;;;5036876;28;20432;-83
2022/05/10 01:25:15;;;;;;;9.87;5.47;;;12.50;1.00;;;;;;5031328;28;20457;-82
2022/05/10 01:27:56;;;;;;;8.10;5.23;;;12.50;1.00;;;;;;5030947;28;20466;-81
2022/05/10 01:30:35;;;;;;;7.47;5.30;;;12.50;1.00;;;;;;5029855;28;20425;-80
2022/05/10 01:33:35;;;;;;;8.70;5.10;;;12.50;1.00;;;;;;5030586;28;20516;-82
2022/05/10 01:36:27;;;;;;;7.07;5.40;;;12.40;1.00;;;;;;5032967;28;20432;-85
2022/05/10 01:39:08;;;;;;;8.20;5.00;;;12.40;1.00;;;;;;5032934;28;20425;-83
2022/05/10 01:41:47;;;;;;;8.83;5.70;;;12.40;1.00;;;;;;5031517;28;20461;-79
2022/05/10 01:44:25;;;;;;;7.87;5.23;;;12.30;1.00;;;;;;5036041;28;20443;-81
2022/05/10 01:47:06;;;;;;;7.80;5.43;;;12.30;1.00;;;;;;5030618;28;20536;-82
2022/05/10 01:49:44;;;;;;;9.80;5.90;;;12.30;1.00;;;;;;5028297;28;20453;-82
2022/05/10 01:52:17;;;;;;;8.00;5.20;;;12.20;1.00;;;;;;5035113;28;20497;-90
2022/05/10 01:55:15;;;;;;;9.00;5.23;;;12.20;1.00;;;;;;5029795;28;20461;-81
2022/05/10 01:57:42;;;;;;;9.47;5.20;;;12.20;1.00;;;;;;5024907;28;20530;-87
2022/05/10 02:00:18;;;;;;;10.93;6.63;;;12.20;1.00;;;;;;5037585;28;20485;-82
2022/05/10 02:02:55;;;;;;;11.73;5.70;;;12.20;1.00;;;;;;5039102;28;20409;-83
2022/05/10 02:05:36;;;;;;;8.60;5.30;;;12.10;1.00;;;;;;5039442;28;20477;-79
2022/05/10 02:08:15;;;;;;;7.27;5.30;;;12.10;1.00;;;;;;5033953;28;20489;-82
2022/05/10 02:10:58;;;;;;;9.33;5.50;;;12.10;1.00;;;;;;5035358;28;20410;-82
2022/05/10 02:13:35;;;;;;;8.10;5.23;;;12.00;1.00;;;;;;5035316;28;20441;-82
2022/05/10 02:16:18;;;;;;;9.23;5.80;;;12.00;1.00;;;;;;5034098;28;20614;-87
2022/05/10 02:18:59;;;;;;;10.27;6.70;;;12.00;1.00;;;;;;5037773;28;20456;-82
2022/05/10 02:21:38;;;;;;;9.00;5.40;;;11.90;1.00;;;;;;5035460;28;20437;-83
2022/05/10 02:24:15;;;;;;;8.10;5.27;;;11.80;1.00;;;;;;5033485;28;20440;-81
2022/05/10 02:26:49;;;;;;;9.00;6.10;;;11.80;1.00;;;;;;5033141;28;20405;-82
2022/05/10 02:29:26;;;;;;;9.10;5.83;;;11.80;1.00;;;;;;5032223;28;20446;-82
2022/05/10 02:35:05;;;;;;;8.90;5.53;;;11.80;1.00;;;;;;5042008;28;20599;-82
2022/05/10 02:37:37;;;;;;;9.60;5.70;;;11.80;1.00;;;;;;5035581;28;20414;-82
2022/05/10 02:40:05;;;;;;;9.60;5.60;;;11.70;1.00;;;;;;5038468;28;20489;-80
2022/05/10 02:42:36;;;;;;;7.43;5.60;;;11.70;1.00;;;;;;5039971;28;20452;-79
2022/05/10 02:45:05;;;;;;;8.33;5.10;;;11.60;1.00;;;;;;5033908;28;20482;-82
2022/05/10 02:47:39;;;;;;;9.47;6.10;;;11.60;1.00;;;;;;5030375;28;20466;-82
2022/05/10 02:50:18;;;;;;;8.90;6.03;;;11.60;1.00;;;;;;5032483;28;20514;-83
2022/05/10 02:52:45;;;;;;;9.23;5.03;;;11.60;1.00;;;;;;5029610;28;20480;-82
2022/05/10 02:55:17;;;;;;;17.07;6.87;;;11.50;1.00;;;;;;5031929;28;20435;-82
2022/05/10 02:57:47;;;;;;;11.40;6.33;;;11.50;1.00;;;;;;5035657;28;20995;-81
2022/05/10 03:00:36;;;;;;;8.33;5.97;;;11.50;1.00;;;;;;5037517;28;20437;-79
2022/05/10 03:03:18;;;;;;;9.80;5.60;;;11.50;1.00;;;;;;5036320;28;20422;-81
2022/05/10 03:05:48;;;;;;;10.83;6.13;;;11.50;1.00;;;;;;5031979;28;20417;-81
2022/05/10 03:08:16;;;;;;;7.77;5.30;;;11.40;1.00;;;;;;5035022;28;20445;-83
2022/05/10 03:10:46;;;;;;;8.97;5.93;;;11.40;1.00;;;;;;5038209;28;20472;-84
2022/05/10 03:13:16;;;;;;;8.50;6.30;;;11.40;1.00;;;;;;5033568;28;20449;-82
2022/05/10 03:15:47;;;;;;;10.73;6.07;;;11.40;1.00;;;;;;5036788;28;20437;-83
2022/05/10 03:18:16;;;;;;;11.10;6.30;;;11.40;1.00;;;;;;5040028;28;20424;-88
2022/05/10 03:20:48;;;;;;;10.23;6.60;;;11.40;1.00;;;;;;5033448;28;20428;-82
2022/05/10 03:23:16;;;;;;;10.97;6.60;;;11.40;1.00;;;;;;5029572;28;20479;-82
2022/05/10 03:25:46;;;;;;;10.83;6.27;;;11.40;1.00;;;;;;5039293;28;20437;-84
2022/05/10 03:28:16;;;;;;;8.27;6.03;;;11.40;1.00;;;;;;5039195;28;20425;-83
2022/05/10 03:30:47;;;;;;;10.73;6.53;;;11.40;1.00;;;;;;5036206;28;20462;-83
2022/05/10 03:33:18;;;;;;;11.40;6.33;;;11.40;1.00;;;;;;5037046;28;20466;-83
2022/05/10 03:35:47;;;;;;;11.87;6.63;;;11.40;1.00;;;;;;5040341;28;20430;-82
2022/05/10 03:38:16;;;;;;;10.57;6.20;;;11.40;1.00;;;;;;5041405;28;20441;-85
2022/05/10 03:40:47;;;;;;;15.50;8.40;;;11.40;1.00;;;;;;5036256;28;20465;-82
2022/05/10 03:43:17;;;;;;;12.10;6.87;;;11.40;1.00;;;;;;5029854;28;20432;-82
2022/05/10 03:45:46;;;;;;;11.33;6.60;;;11.40;1.00;;;;;;5035135;28;20466;-88
2022/05/10 03:48:16;;;;;;;23.87;7.80;;;11.40;1.00;;;;;;5037644;28;20438;-85
2022/05/10 03:50:48;;;;;;;12.60;6.50;;;11.50;1.00;;;;;;5038648;28;20453;-80
2022/05/10 03:53:18;;;;;;;10.33;6.43;;;11.50;1.00;;;;;;5033438;28;20430;-82
2022/05/10 03:55:46;;;;;;;20.87;8.23;;;11.50;1.00;;;;;;5034159;28;20467;-82
2022/05/10 03:58:17;;;;;;;9.83;6.60;;;11.50;1.00;;;;;;5032655;28;20499;-83
2022/05/10 04:00:46;;;;;;;13.27;6.47;;;11.50;1.00;;;;;;5032421;28;20483;-83
2022/05/10 04:03:16;;;;;;;12.90;7.13;;;11.50;1.00;;;;;;5027361;28;20422;-83
2022/05/10 04:05:48;;;;;;;10.80;6.53;;;11.40;1.00;;;;;;5036404;28;20445;-84
2022/05/10 04:08:16;;;;;;;11.70;6.23;;;11.40;1.00;;;;;;5032435;28;20426;-79
2022/05/10 04:10:46;;;;;;;10.97;7.00;;;11.40;1.00;;;;;;5029059;28;20451;-82
2022/05/10 04:13:16;;;;;;;10.63;6.67;;;11.40;1.00;;;;;;5031595;28;20461;-82
2022/05/10 04:15:47;;;;;;;10.00;6.50;;;11.40;1.00;;;;;;5033662;28;20593;-82
2022/05/10 04:18:17;;;;;;;10.00;5.93;;;11.50;1.00;;;;;;5039263;28;20444;-82
2022/05/10 04:20:48;;;;;;;8.33;6.43;;;11.50;1.00;;;;;;5036131;28;20493;-82
2022/05/10 04:23:19;;;;;;;11.60;6.40;;;11.50;1.00;;;;;;5032288;28;20542;-83
2022/05/10 04:25:47;;;;;;;10.80;6.37;;;11.50;1.00;;;;;;5040932;28;20482;-79
2022/05/10 04:28:17;;;;;;;12.13;8.50;;;11.50;1.00;;;;;;5041933;28;20414;-80
2022/05/10 04:30:49;;;;;;;9.27;6.67;;;11.50;1.00;;;;;;5036121;28;20481;-76
2022/05/10 04:33:17;;;;;;;13.20;8.20;;;11.60;1.00;;;;;;5030561;28;20519;-77
2022/05/10 04:35:47;;;;;;;12.07;7.93;;;11.60;1.00;;;;;;5030925;28;20422;-81
2022/05/10 04:38:18;;;;;;;9.77;7.20;;;11.60;1.00;;;;;;5028270;28;20425;-80
2022/05/10 04:43:47;;;;;;;9.00;6.13;;;11.60;1.00;;;;;;5032825;28;20449;-76
2022/05/10 04:46:17;;;;;;;10.37;7.40;;;11.70;1.00;;;;;;5041664;28;20473;-79
2022/05/10 04:48:47;;;;;;;11.70;7.17;;;11.70;1.00;;;;;;5030694;28;21276;-79
2022/05/10 04:51:16;;;;;;;9.63;6.77;;;11.70;1.00;;;;;;5030573;28;20433;-81
2022/05/10 04:53:48;;;;;;;11.83;8.27;;;11.70;1.00;;;;;;5033272;28;20607;-77
2022/05/10 04:56:17;;;;;;;10.50;6.60;;;11.70;1.00;;;;;;5025337;28;20437;-82
2022/05/10 04:58:47;;;;;;;10.40;6.67;;;11.80;1.00;;;;;;5033079;28;20418;-80
2022/05/10 05:01:18;;;;;;;10.80;6.57;;;11.80;1.00;;;;;;5031733;28;20460;-80
2022/05/10 05:03:49;;;;;;;10.50;6.70;;;11.80;1.00;;;;;;5028978;28;21389;-81
2022/05/10 05:06:19;;;;;;;10.93;7.13;;;11.90;1.00;;;;;;5030267;28;20449;-86
2022/05/10 05:08:48;;;;;;;11.60;8.37;;;12.00;1.00;;;;;;5036613;28;20494;-81
2022/05/10 05:11:17;;;;;;;8.00;6.03;;;12.10;1.00;;;;;;5024651;28;20489;-80
2022/05/10 05:13:47;;;;;;;10.33;8.10;;;12.20;1.00;;;;;;5026483;28;20437;-81
2022/05/10 05:16:17;;;;;;;11.33;7.33;;;12.20;1.00;;;;;;5025655;28;20637;-78
2022/05/10 05:18:47;;;;;;;13.03;6.80;;;12.30;1.00;;;;;;5026745;28;20426;-79
2022/05/10 05:21:18;;;;;;;16.77;13.37;;;12.40;1.00;;;;;;5033923;28;20468;-79
2022/05/10 05:23:48;;;;;;;11.40;6.77;;;12.50;1.00;;;;;;5031181;28;20472;-79
2022/05/10 05:26:18;;;;;;;9.50;6.80;;;12.60;1.00;;;;;;5016747;28;20445;-81
2022/05/10 05:28:47;;;;;;;10.00;6.37;;;12.70;1.00;;;;;;5021402;28;20468;-80
2022/05/10 05:31:17;;;;;;;11.20;6.87;;;12.70;1.00;;;;;;5031683;28;20451;-80
2022/05/10 05:33:47;;;;;;;20.40;7.83;;;12.90;1.00;;;;;;5027977;28;20432;-79
2022/05/10 05:36:18;;;;;;;14.50;7.60;;;13.00;1.00;;;;;;5043657;28;20473;-77
2022/05/10 05:38:49;;;;;;;8.80;6.30;;;13.20;1.00;;;;;;5035499;28;20488;-82
2022/05/10 05:41:17;;;;;;;12.00;7.80;;;13.30;1.00;;;;;;5032907;28;20444;-80
2022/05/10 05:43:47;;;;;;;10.83;6.07;;;13.40;1.00;;;;;;5032980;28;20422;-81
2022/05/10 05:46:17;;;;;;;10.57;6.53;;;13.50;1.00;;;;;;5034180;28;20436;-81
2022/05/10 05:49:06;;;;;;;16.20;7.57;;;13.70;1.00;;;;;;5023359;28;20427;-81
2022/05/10 05:51:36;;;;;;;14.97;6.93;;;13.80;1.00;;;;;;5033033;28;20442;-81
2022/05/10 05:54:25;;;;;;;10.93;7.20;;;14.00;1.00;;;;;;5036670;28;20424;-79
2022/05/10 05:56:59;;;;;;;12.93;7.90;;;14.20;1.00;;;;;;5035401;28;20431;-79
2022/05/10 05:59:27;;;;;;;11.03;6.40;;;14.40;1.00;;;;;;5044816;28;20546;-82
2022/05/10 06:01:58;;;;;;;12.30;6.77;;;14.60;1.00;;;;;;5026421;28;20455;-81
2022/05/10 06:04:27;;;;;;;13.60;6.70;;;14.80;1.00;;;;;;5016236;28;20544;-80
2022/05/10 06:06:58;;;;;;;11.63;6.20;;;14.90;1.00;;;;;;5031863;28;20473;-77
2022/05/10 06:09:30;;;;;;;13.10;6.47;;;15.00;1.00;;;;;;5032066;28;20428;-78
2022/05/10 06:12:00;;;;;;;10.70;6.90;;;15.00;1.00;;;;;;5021877;28;20448;-82
2022/05/10 06:14:29;;;;;;;13.40;6.70;;;15.10;1.00;;;;;;5036212;28;20437;-82
2022/05/10 06:16:58;;;;;;;14.53;6.30;;;15.30;1.00;;;;;;5033685;28;20460;-81
2022/05/10 06:19:32;;;;;;;10.90;6.23;;;15.40;1.00;;;;;;5032171;28;20443;-79
2022/05/10 06:22:00;;;;;;;15.33;7.90;;;15.60;1.00;;;;;;5035246;28;20476;-80
2022/05/10 06:24:29;;;;;;;13.87;7.43;;;15.80;1.00;;;;;;5032764;28;20464;-81
2022/05/10 06:26:57;;;;;;;13.97;7.03;;;16.00;1.00;;;;;;5036744;28;20461;-80
2022/05/10 06:29:27;;;;;;;10.57;6.20;;;16.10;1.00;;;;;;5024436;28;20575;-82
2022/05/10 06:31:57;;;;;;;9.73;6.47;;;16.20;1.00;;;;;;5031232;28;20448;-81
2022/05/10 06:34:27;;;;;;;14.20;5.80;;;16.40;1.00;;;;;;5026560;28;20425;-80
2022/05/10 06:36:57;;;;;;;13.00;6.90;;;16.60;1.00;;;;;;5028527;28;20431;-80
2022/05/10 06:39:29;;;;;;;13.33;6.53;;;16.80;1.00;;;;;;5039466;28;20421;-82
2022/05/10 06:41:57;;;;;;;11.80;6.60;;;16.90;1.00;;;;;;5023315;28;20449;-80
2022/05/10 06:44:27;;;;;;;11.40;7.23;;;17.10;1.00;;;;;;5023001;28;20445;-81
2022/05/10 06:47:00;;;;;;;13.23;7.83;;;17.20;1.00;;;;;;5033839;28;20522;-82
2022/05/10 06:49:27;;;;;;;14.73;7.10;;;17.20;1.00;;;;;;5039131;28;20468;-80
2022/05/10 06:51:57;;;;;;;9.60;5.83;;;17.40;1.00;;;;;;5029135;28;20472;-79
2022/05/10 06:54:30;;;;;;;15.70;6.10;;;17.50;1.00;;;;;;5031171;28;20484;-79
2022/05/10 06:56:57;;;;;;;11.10;6.27;;;17.60;1.00;;;;;;5027442;28;20440;-81
2022/05/10 06:59:27;;;;;;;11.60;6.80;;;17.80;1.00;;;;;;5024665;28;20447;-79
2022/05/10 07:02:00;;;;;;;13.87;7.03;;;17.90;1.00;;;;;;5030645;28;20472;-81
2022/05/10 07:04:27;;;;;;;12.53;5.70;;;18.10;1.00;;;;;;5030658;28;20439;-80
2022/05/10 07:06:58;;;;;;;12.53;6.90;;;18.10;1.00;;;;;;5042756;28;20488;-81
2022/05/10 07:09:29;;;;;;;9.20;6.70;;;18.10;1.00;;;;;;5026457;28;20457;-82
2022/05/10 07:11:59;;;;;;;11.20;5.57;;;18.20;1.00;;;;;;5029774;28;20481;-81
2022/05/10 07:14:27;;;;;;;14.67;6.73;;;18.30;1.00;;;;;;5036859;28;20436;-80
2022/05/10 07:16:57;;;;;;;10.50;5.13;;;18.30;1.00;;;;;;5030507;28;20437;-81
2022/05/10 07:19:28;;;;;;;13.30;6.43;;;18.30;1.00;;;;;;5007806;28;20414;-81
2022/05/10 07:21:57;;;;;;;14.87;6.20;;;18.30;1.00;;;;;;5022886;28;20445;-78
2022/05/10 07:24:27;;;;;;;11.60;6.50;;;18.30;1.00;;;;;;5037414;28;20512;-82
2022/05/10 07:26:59;;;;;;;10.83;6.67;;;18.40;1.00;;;;;;5030739;28;21226;-80
2022/05/10 07:29:29;;;;;;;11.10;5.33;;;18.60;1.00;;;;;;5033101;28;20421;-79
2022/05/10 07:31:58;;;;;;;13.90;6.50;;;18.70;1.00;;;;;;5035320;28;20433;-81
2022/05/10 07:34:28;;;;;;;12.97;6.63;;;18.90;1.00;;;;;;5022074;28;20425;-81
2022/05/10 07:36:59;;;;;;;13.60;7.07;;;19.10;1.00;;;;;;5026487;28;21885;-80
2022/05/10 07:39:29;;;;;;;15.47;6.90;;;19.20;1.00;;;;;;5033018;28;20457;-82
2022/05/10 07:42:03;;;;;;;13.27;8.10;;;19.40;1.00;;;;;;5036344;28;20485;-80
2022/05/10 07:44:30;;;;;;;10.57;5.80;;;19.60;1.00;;;;;;5032404;28;20465;-82
2022/05/10 07:46:58;;;;;;;11.57;5.10;;;19.90;1.00;;;;;;5030290;28;20453;-80
2022/05/10 07:49:27;;;;;;;13.53;6.17;;;20.10;1.00;;;;;;5015514;28;20426;-80
2022/05/10 07:51:58;;;;;;;14.63;5.27;;;20.30;1.00;;;;;;5020617;28;20436;-88
2022/05/10 07:54:28;;;;;;;9.70;5.27;;;20.50;1.00;;;;;;5024545;28;20478;-86
2022/05/10 07:57:00;;;;;;;10.60;4.67;;;20.70;1.00;;;;;;5034688;28;20441;-79
2022/05/10 07:59:31;;;;;;;10.50;4.50;;;20.90;1.00;;;;;;5025238;28;20632;-78
2022/05/10 08:01:59;;;;;;;11.63;5.57;;;21.00;1.00;;;;;;5032602;28;20441;-80
2022/05/10 08:04:28;;;;;;;25.60;15.30;;;21.00;1.00;;;;;;5026727;28;20464;-80
2022/05/10 08:06:58;;;;;;;12.83;4.87;;;21.20;1.00;;;;;;5029225;28;20458;-80
2022/05/10 08:09:28;;;;;;;13.53;5.67;;;21.20;1.00;;;;;;5032164;28;20539;-78
2022/05/10 08:12:08;;;;;;;8.57;4.83;;;21.50;1.00;;;;;;5032793;28;20497;-80
2022/05/10 08:14:39;;;;;;;10.50;5.40;;;21.70;1.00;;;;;;5024858;28;20536;-81
2022/05/10 08:17:08;;;;;;;11.80;5.03;;;21.70;1.00;;;;;;5033316;28;20464;-80
2022/05/10 08:19:38;;;;;;;10.97;4.57;;;21.70;1.00;;;;;;5022927;28;20547;-80
2022/05/10 08:22:09;;;;;;;15.20;4.70;;;21.90;1.00;;;;;;5035071;28;20520;-79
2022/05/10 08:24:38;;;;;;;11.93;4.87;;;22.10;1.00;;;;;;5028747;28;20433;-79
2022/05/10 08:27:10;;;;;;;14.37;4.50;;;22.20;1.00;;;;;;5026032;28;20426;-78
2022/05/10 08:29:38;;;;;;;11.00;4.97;;;22.30;1.00;;;;;;5022136;28;20510;-81
2022/05/10 08:32:08;;;;;;;11.47;5.23;;;22.40;1.00;;;;;;5031146;28;21284;-79
2022/05/10 08:34:38;;;;;;;11.20;4.90;;;22.60;1.00;;;;;;5033774;28;20469;-80
2022/05/10 08:37:08;;;;;;;12.63;4.60;;;22.70;1.00;;;;;;5028006;28;20417;-85
2022/05/10 08:39:40;;;;;;;9.27;5.30;;;22.90;1.00;;;;;;5032156;28;20436;-83
2022/05/10 08:42:19;;;;;;;14.77;5.20;;;22.90;1.00;;;;;;5029595;28;20487;-82
2022/05/10 08:44:57;;;;;;;10.27;4.63;;;23.00;1.00;;;;;;5032868;28;20456;-80
2022/05/10 08:47:29;;;;;;;8.90;3.87;;;23.30;1.00;;;;;;5026727;28;20444;-79
2022/05/10 08:50:00;;;;;;;15.20;5.33;;;23.20;1.00;;;;;;5033281;28;20418;-78
2022/05/10 08:52:37;;;;;;;9.50;4.73;;;23.30;1.00;;;;;;5035790;28;20580;-80
2022/05/10 08:55:08;;;;;;;10.97;5.20;;;23.50;1.00;;;;;;5019134;28;20429;-84
2022/05/10 08:57:51;;;;;;;10.97;4.30;;;23.50;1.00;;;;;;5029646;28;20441;-82
2022/05/10 09:00:28;;;;;;;14.70;4.93;;;23.70;1.00;;;;;;5010961;28;20439;-77
2022/05/10 09:03:00;;;;;;;11.10;4.87;;;23.80;1.00;;;;;;5022283;28;20587;-82
2022/05/10 09:05:39;;;;;;;11.73;5.57;;;23.90;1.00;;;;;;5015577;28;22774;-78
2022/05/10 09:08:22;;;;;;;8.50;4.20;;;24.10;1.00;;;;;;5027689;28;20417;-80
2022/05/10 09:10:52;;;;;;;8.40;3.87;;;24.30;1.00;;;;;;5024466;28;20420;-81
2022/05/10 09:13:28;;;;;;;9.50;3.67;;;24.30;1.00;;;;;;5038260;28;20508;-78
2022/05/10 09:16:04;;;;;;;8.10;3.50;;;24.50;1.00;;;;;;5027293;28;20543;-77
2022/05/10 09:18:38;;;;;;;8.63;3.50;;;24.60;1.00;;;;;;5019700;28;20487;-79
2022/05/10 09:21:18;;;;;;;12.07;4.77;;;24.80;1.00;;;;;;5028902;28;20448;-80
2022/05/10 09:24:07;;;;;;;11.57;4.10;;;25.20;1.00;;;;;;5014548;28;20435;-80
2022/05/10 09:26:42;;;;;;;9.40;3.07;;;25.80;1.00;;;;;;5031248;28;20426;-79
2022/05/10 09:29:29;;;;;;;10.00;3.33;;;26.60;1.00;;;;;;5030089;28;20551;-79
2022/05/10 09:35:01;;;;;;;7.57;3.63;;;28.60;1.00;;;;;;5033932;28;20432;-79
2022/05/10 09:37:32;;;;;;;8.30;3.70;;;29.70;1.00;;;;;;5022321;28;20414;-79
2022/05/10 09:40:32;;;;;;;8.43;3.20;;;30.20;1.00;;;;;;5033277;28;20433;-79
2022/05/10 09:43:28;;;;;;;8.90;3.40;;;30.80;1.00;;;;;;5031037;28;20513;-78
2022/05/10 09:46:12;;;;;;;8.50;4.03;;;30.60;1.00;;;;;;5031851;28;20425;-80
2022/05/10 09:48:44;;;;;;;7.70;3.60;;;31.40;1.00;;;;;;5032023;28;20426;-80
2022/05/10 09:51:39;;;;;;;10.53;3.37;;;31.60;1.00;;;;;;5032005;28;20692;-82
2022/05/10 09:54:18;;;;;;;8.20;3.17;;;32.30;1.00;;;;;;5039053;28;20436;-78
2022/05/10 09:56:59;;;;;;;8.67;3.97;;;32.70;1.00;;;;;;5019942;28;20536;-77
2022/05/10 09:59:32;;;;;;;8.33;3.10;;;33.30;1.00;;;;;;5031878;28;20418;-80
2022/05/10 10:02:07;;;;;;;8.00;3.80;;;34.20;1.00;;;;;;5019273;28;20538;-83
2022/05/10 10:04:48;;;;;;;7.90;3.40;;;35.00;1.00;;;;;;5028958;28;20431;-77
2022/05/10 10:07:22;;;;;;;9.37;3.53;;;35.60;1.00;;;;;;5026120;28;20484;-79
2022/05/10 10:09:57;;;;;;;7.60;2.87;;;36.00;1.00;;;;;;5027074;28;20508;-79
2022/05/10 10:12:40;;;;;;;7.60;2.80;;;36.00;1.00;;;;;;5025856;28;20435;-84
2022/05/10 10:15:31;;;;;;;9.63;3.37;;;36.00;1.00;;;;;;5039024;28;20538;-82
2022/05/10 10:18:10;;;;;;;7.67;3.10;;;36.30;1.00;;;;;;5031604;28;20443;-80
2022/05/10 10:20:48;;;;;;;7.97;3.33;;;37.00;1.00;;;;;;5011137;28;20448;-84
2022/05/10 10:23:24;;;;;;;9.40;3.30;;;37.30;1.00;;;;;;5045104;28;20427;-84
2022/05/10 10:26:01;;;;;;;8.00;3.10;;;37.10;1.00;;;;;;5032166;28;20471;-83
2022/05/10 10:28:31;;;;;;;8.00;3.20;;;36.60;1.00;;;;;;5030208;28;20452;-85
2022/05/10 10:31:09;;;;;;;9.30;3.23;;;36.50;1.00;;;;;;5033960;28;20433;-81
2022/05/10 10:33:44;;;;;;;8.37;3.77;;;36.50;1.00;;;;;;5034119;28;20423;-80
2022/05/10 10:36:18;;;;;;;7.70;3.27;;;36.80;1.00;;;;;;5015170;28;20479;-81
2022/05/10 10:38:52;;;;;;;8.10;3.33;;;36.80;1.00;;;;;;5029438;28;20455;-81
2022/05/10 10:41:37;;;;;;;6.97;2.93;;;37.10;1.00;;;;;;5018912;28;20433;-80
2022/05/10 10:44:11;;;;;;;6.80;3.00;;;36.60;1.00;;;;;;5025424;28;20457;-81
2022/05/10 10:46:47;;;;;;;10.33;3.57;;;36.70;1.00;;;;;;5027218;28;20476;-80
2022/05/10 10:49:22;;;;;;;7.70;3.40;;;36.60;1.00;;;;;;5029327;28;21172;-80
2022/05/10 10:51:51;;;;;;;9.30;3.90;;;36.20;1.00;;;;;;5029965;28;20461;-80
2022/05/10 10:54:28;;;;;;;8.17;3.17;;;36.10;1.00;;;;;;5038744;28;20471;-83
2022/05/10 10:57:31;;;;;;;10.60;3.87;;;36.10;1.00;;;;;;5028298;28;20438;-80
2022/05/10 11:00:15;;;;;;;9.37;4.10;;;35.60;1.00;;;;;;5027371;28;20512;-81
2022/05/10 11:03:09;;;;;;;8.00;3.73;;;34.80;1.00;;;;;;5029642;28;20500;-79
2022/05/10 11:06:28;;;;;;;10.40;3.63;;;33.90;1.00;;;;;;5024668;28;21182;-78
2022/05/10 11:09:31;;;;;;;8.27;3.20;;;33.00;1.00;;;;;;5026073;28;20485;-77
2022/05/10 11:12:12;;;;;;;8.10;4.17;;;33.10;1.00;;;;;;5025057;28;20459;-80
2022/05/10 11:14:59;;;;;;;8.30;4.13;;;33.20;1.00;;;;;;5028706;28;20440;-79
2022/05/10 11:17:38;;;;;;;7.83;3.47;;;33.80;1.00;;;;;;5026020;28;20432;-80
2022/05/10 11:20:28;;;;;;;6.73;3.43;;;34.70;1.00;;;;;;5025729;28;20930;-80
2022/05/10 11:23:03;;;;;;;8.57;4.03;;;35.20;1.00;;;;;;5033709;28;20512;-78
2022/05/10 11:26:01;;;;;;;9.60;4.17;;;35.40;1.00;;;;;;5021811;28;20448;-79
2022/05/10 11:29:17;;;;;;;9.90;3.87;;;36.30;1.00;;;;;;5022809;28;20461;-80
2022/05/10 11:32:01;;;;;;;9.30;3.67;;;37.20;1.00;;;;;;5024609;28;20425;-80
2022/05/10 11:34:45;;;;;;;7.10;3.33;;;37.50;1.00;;;;;;5018475;28;20576;-80
2022/05/10 11:37:18;;;;;;;8.37;3.80;;;37.70;1.00;;;;;;5028892;28;20905;-85
2022/05/10 11:40:05;;;;;;;8.73;3.73;;;37.40;1.00;;;;;;5033309;28;20682;-83
2022/05/10 11:42:49;;;;;;;7.97;3.93;;;37.40;1.00;;;;;;5023664;28;20443;-83
2022/05/10 11:45:59;;;;;;;10.03;4.00;;;37.30;1.00;;;;;;5038153;28;20482;-81
2022/05/10 11:49:08;;;;;;;10.80;4.27;;;36.10;1.00;;;;;;5024654;28;20428;-80
2022/05/10 11:55:20;;;;;;;7.30;3.90;;;35.70;1.00;;;;;;5017098;28;20458;-80
2022/05/10 11:58:10;;;;;;;8.77;4.40;;;35.60;1.00;;;;;;5028901;28;20455;-80
2022/05/10 12:00:59;;;;;;;8.97;4.37;;;35.10;1.00;;;;;;5022506;28;20430;-81
2022/05/10 12:04:19;;;;;;;7.27;4.07;;;34.90;1.00;;;;;;5026789;28;20421;-78
2022/05/10 12:06:50;;;;;;;8.13;4.53;;;34.40;1.00;;;;;;5030508;28;20440;-80
2022/05/10 12:09:52;;;;;;;9.40;3.80;;;34.00;1.00;;;;;;5041414;28;20416;-79
2022/05/10 12:13:01;;;;;;;9.40;3.90;;;33.60;1.00;;;;;;5035951;28;20428;-81
2022/05/10 12:22:14;;;;;;;7.60;4.23;;;34.90;1.00;;;;;;5007596;28;20432;-80
2022/05/10 12:24:44;;;;;;;7.70;3.20;;;35.50;1.00;;;;;;5028482;28;20457;-82
2022/05/10 12:27:41;;;;;;;7.60;3.67;;;35.60;1.00;;;;;;5021616;28;20477;-81
2022/05/10 12:30:30;;;;;;;7.17;4.40;;;35.70;1.00;;;;;;5030784;28;20453;-82
2022/05/10 12:33:32;;;;;;;9.80;3.40;;;35.80;1.00;;;;;;5033470;28;20471;-81
2022/05/10 12:36:12;;;;;;;7.47;3.47;;;35.90;1.00;;;;;;5039339;28;20460;-81
2022/05/10 12:38:54;;;;;;;8.03;4.00;;;35.60;1.00;;;;;;5026716;28;20433;-80
2022/05/10 12:41:52;;;;;;;6.70;3.23;;;35.40;1.00;;;;;;5030836;28;20467;-82
2022/05/10 12:44:58;;;;;;;6.30;3.23;;;35.80;1.00;;;;;;5032853;28;20524;-84
2022/05/10 12:48:00;;;;;;;7.30;4.00;;;35.50;1.00;;;;;;5029302;28;20449;-81
2022/05/10 12:50:58;;;;;;;9.13;3.60;;;34.70;1.00;;;;;;5028434;28;20426;-82
2022/05/10 12:53:39;;;;;;;10.17;4.53;;;33.80;1.00;;;;;;5010474;28;20442;-80
2022/05/10 12:56:21;;;;;;;15.23;6.57;;;33.60;1.00;;;;;;5026075;28;20489;-82
2022/05/10 12:58:53;;;;;;;8.10;3.90;;;34.00;1.00;;;;;;5033659;28;20416;-83
2022/05/10 13:01:40;;;;;;;8.77;3.73;;;34.10;1.00;;;;;;5024266;28;20236;-83
2022/05/10 13:04:17;;;;;;;8.27;4.03;;;33.10;1.00;;;;;;5025748;28;20433;-83
2022/05/10 13:06:59;;;;;;;8.00;4.60;;;32.30;1.00;;;;;;5032344;28;20563;-82
2022/05/10 13:09:40;;;;;;;9.87;5.00;;;32.10;1.00;;;;;;5022796;28;20576;-79
2022/05/10 13:12:22;;;;;;;9.60;4.50;;;32.90;1.00;;;;;;5025775;28;20500;-81
2022/05/10 13:14:54;;;;;;;8.53;4.10;;;35.00;1.00;;;;;;5017543;28;20422;-80
2022/05/10 13:17:24;;;;;;;8.30;3.67;;;36.40;1.00;;;;;;5025515;28;20473;-81
2022/05/10 13:19:59;;;;;;;8.40;3.73;;;37.40;1.00;;;;;;5008442;28;20453;-81
2022/05/10 13:22:31;;;;;;;7.30;3.60;;;37.70;1.00;;;;;;5028291;28;20437;-83
2022/05/10 13:25:08;;;;;;;8.10;4.60;;;37.60;1.00;;;;;;5015374;28;20421;-83
2022/05/10 13:27:37;;;;;;;8.97;4.40;;;37.40;1.00;;;;;;5026806;28;20482;-82
2022/05/10 13:30:13;;;;;;;8.30;3.93;;;37.40;1.00;;;;;;5033163;28;20464;-82
2022/05/10 13:32:47;;;;;;;11.10;9.77;;;36.30;1.00;;;;;;5031325;28;20473;-83
2022/05/10 13:35:21;;;;;;;7.03;3.83;;;35.00;1.00;;;;;;5031845;28;20543;-83
2022/05/10 13:37:59;;;;;;;13.17;3.80;;;34.50;1.00;;;;;;5039950;28;20445;-82
2022/05/10 13:40:35;;;;;;;9.93;4.57;;;34.30;1.00;;;;;;5012182;28;21204;-82
2022/05/10 13:43:28;;;;;;;10.40;3.67;;;34.00;1.00;;;;;;5021672;28;20460;-79
2022/05/10 13:46:02;;;;;;;7.43;3.73;;;33.80;1.00;;;;;;5028901;28;20454;-84
2022/05/10 13:48:39;;;;;;;8.90;4.37;;;34.40;1.00;;;;;;5027906;28;20484;-81
2022/05/10 13:51:12;;;;;;;9.63;4.37;;;35.50;1.00;;;;;;5032256;28;20491;-80
2022/05/10 13:53:42;;;;;;;9.20;5.03;;;36.60;1.00;;;;;;5029452;28;21213;-80
2022/05/10 13:56:22;;;;;;;7.10;3.80;;;36.80;1.00;;;;;;5046428;28;20437;-80
2022/05/10 13:58:50;;;;;;;7.33;3.93;;;36.50;1.00;;;;;;5042271;28;20428;-82